CNH1992 UKDE-UKWW
Flight info
| Callsign | CNH1992 |
|---|---|
| Flight time | 0h 55m |
| Altitude | 20000 |
| Route | DCT UMSOT DCT KOSNA DCT NIROV |
| Aircraft | AN24/M-SDFG/S |
Departure
| Time | 2026-05-06 20:57 |
|---|---|
| Airport | Zaporizhzhia International Airport (UKDE) |
Arrival
| Time | 2026-05-06 21:53 |
|---|---|
| Airport | Vinnytsia/Gavyryshivka International Airport (UKWW) |
| Time | Latitude | Longitude | Altitude | Speed | Heading |
|---|---|---|---|---|---|
| 2026-05-06 20:31 | 47.87171 | 35.30384 | 384 ft | 0 kts | 234° |
| 2026-05-06 20:52 | 47.87171 | 35.30383 | 384 ft | 0 kts | 235° |
| 2026-05-06 20:53 | 47.87159 | 35.30373 | 384 ft | 3 kts | 197° |
| 2026-05-06 20:54 | 47.87103 | 35.30389 | 384 ft | 14 kts | 152° |
| 2026-05-06 20:54 | 47.87013 | 35.30466 | 384 ft | 16 kts | 150° |
| 2026-05-06 20:54 | 47.86969 | 35.30503 | 384 ft | 8 kts | 150° |
| 2026-05-06 20:54 | 47.86876 | 35.30587 | 384 ft | 23 kts | 149° |
| 2026-05-06 20:55 | 47.86811 | 35.30644 | 384 ft | 0 kts | 149° |
| 2026-05-06 20:55 | 47.86727 | 35.30713 | 384 ft | 45 kts | 150° |
| 2026-05-06 20:55 | 47.86589 | 35.31031 | 384 ft | 31 kts | 93° |
| 2026-05-06 20:55 | 47.86577 | 35.31289 | 384 ft | 18 kts | 94° |
| 2026-05-06 20:56 | 47.86691 | 35.31499 | 384 ft | 61 kts | 22° |
| 2026-05-06 20:56 | 47.87199 | 35.31813 | 384 ft | 68 kts | 22° |
| 2026-05-06 20:56 | 47.87545 | 35.32045 | 384 ft | 42 kts | 22° |
| 2026-05-06 20:56 | 47.87686 | 35.32095 | 384 ft | 11 kts | 216° |
| 2026-05-06 20:57 | 47.87386 | 35.31914 | 384 ft | 89 kts | 203° |
| 2026-05-06 20:57 | 47.86611 | 35.31438 | 445 ft | 139 kts | 207° |
| 2026-05-06 20:57 | 47.85711 | 35.30725 | 755 ft | 151 kts | 226° |
| 2026-05-06 20:57 | 47.85540 | 35.29213 | 1004 ft | 166 kts | 282° |
| 2026-05-06 20:58 | 47.85836 | 35.27494 | 1381 ft | 176 kts | 282° |
| 2026-05-06 20:58 | 47.86026 | 35.25684 | 1868 ft | 177 kts | 277° |
| 2026-05-06 20:58 | 47.86195 | 35.23863 | 2312 ft | 185 kts | 278° |
| 2026-05-06 20:58 | 47.86406 | 35.22001 | 2910 ft | 185 kts | 281° |
| 2026-05-06 20:59 | 47.86620 | 35.20058 | 3341 ft | 193 kts | 278° |
| 2026-05-06 20:59 | 47.86797 | 35.18149 | 4042 ft | 187 kts | 278° |
| 2026-05-06 20:59 | 47.87027 | 35.16232 | 4540 ft | 192 kts | 284° |
| 2026-05-06 20:59 | 47.87307 | 35.14283 | 5054 ft | 195 kts | 280° |
| 2026-05-06 21:00 | 47.87478 | 35.12286 | 5569 ft | 198 kts | 278° |
| 2026-05-06 21:00 | 47.87651 | 35.10218 | 6087 ft | 201 kts | 278° |
| 2026-05-06 21:00 | 47.87818 | 35.08142 | 6606 ft | 203 kts | 278° |
| 2026-05-06 21:00 | 47.87975 | 35.06071 | 7121 ft | 205 kts | 277° |
| 2026-05-06 21:01 | 47.88111 | 35.03924 | 7662 ft | 206 kts | 277° |
| 2026-05-06 21:01 | 47.88254 | 35.01828 | 8174 ft | 208 kts | 277° |
| 2026-05-06 21:01 | 47.88408 | 34.99678 | 8694 ft | 210 kts | 278° |
| 2026-05-06 21:01 | 47.88565 | 34.97504 | 9214 ft | 211 kts | 278° |
| 2026-05-06 21:02 | 47.88723 | 34.95327 | 9730 ft | 213 kts | 277° |
| 2026-05-06 21:02 | 47.88882 | 34.93154 | 10241 ft | 214 kts | 277° |
| 2026-05-06 21:02 | 47.89048 | 34.90936 | 10759 ft | 215 kts | 277° |
| 2026-05-06 21:02 | 47.89227 | 34.88736 | 11283 ft | 216 kts | 278° |
| 2026-05-06 21:03 | 47.89405 | 34.86508 | 11802 ft | 217 kts | 277° |
| 2026-05-06 21:03 | 47.89584 | 34.84275 | 12313 ft | 217 kts | 278° |
| 2026-05-06 21:03 | 47.89775 | 34.82075 | 12826 ft | 217 kts | 277° |
| 2026-05-06 21:03 | 47.89975 | 34.79834 | 13341 ft | 217 kts | 278° |
| 2026-05-06 21:04 | 47.90169 | 34.77631 | 13831 ft | 217 kts | 278° |
| 2026-05-06 21:04 | 47.90371 | 34.75397 | 14324 ft | 216 kts | 278° |
| 2026-05-06 21:04 | 47.90557 | 34.73167 | 14804 ft | 216 kts | 277° |
| 2026-05-06 21:04 | 47.90734 | 34.70954 | 15264 ft | 216 kts | 277° |
| 2026-05-06 21:05 | 47.90948 | 34.68764 | 15731 ft | 214 kts | 282° |
| 2026-05-06 21:05 | 47.91446 | 34.66712 | 16215 ft | 211 kts | 295° |
| 2026-05-06 21:05 | 47.91960 | 34.64668 | 16677 ft | 210 kts | 288° |
| 2026-05-06 21:05 | 47.92340 | 34.62573 | 17120 ft | 210 kts | 284° |
| 2026-05-06 21:06 | 47.92685 | 34.60452 | 17540 ft | 211 kts | 286° |
| 2026-05-06 21:06 | 47.93049 | 34.58342 | 17962 ft | 211 kts | 285° |
| 2026-05-06 21:06 | 47.93411 | 34.56221 | 18373 ft | 212 kts | 286° |
| 2026-05-06 21:06 | 47.93778 | 34.54085 | 18783 ft | 213 kts | 286° |
| 2026-05-06 21:07 | 47.94144 | 34.51960 | 19187 ft | 214 kts | 286° |
| 2026-05-06 21:07 | 47.94516 | 34.49806 | 19595 ft | 215 kts | 286° |
| 2026-05-06 21:07 | 47.94885 | 34.47655 | 19999 ft | 215 kts | 286° |
| 2026-05-06 21:07 | 47.95254 | 34.45497 | 20342 ft | 220 kts | 286° |
| 2026-05-06 21:08 | 47.95658 | 34.43180 | 20316 ft | 239 kts | 287° |
| 2026-05-06 21:08 | 47.96084 | 34.40712 | 20409 ft | 251 kts | 286° |
| 2026-05-06 21:08 | 47.96519 | 34.38099 | 20366 ft | 267 kts | 285° |
| 2026-05-06 21:08 | 47.96978 | 34.35370 | 20359 ft | 278 kts | 287° |
| 2026-05-06 21:09 | 47.97505 | 34.32521 | 20331 ft | 288 kts | 286° |
| 2026-05-06 21:09 | 47.98038 | 34.29584 | 20299 ft | 296 kts | 286° |
| 2026-05-06 21:09 | 47.98581 | 34.26622 | 20385 ft | 299 kts | 287° |
| 2026-05-06 21:09 | 47.99146 | 34.23591 | 20345 ft | 305 kts | 287° |
| 2026-05-06 21:10 | 47.99726 | 34.20507 | 20324 ft | 310 kts | 287° |
| 2026-05-06 21:10 | 48.00307 | 34.17424 | 20347 ft | 312 kts | 287° |
| 2026-05-06 21:10 | 48.00845 | 34.14299 | 20352 ft | 314 kts | 285° |
| 2026-05-06 21:10 | 48.01385 | 34.11116 | 20330 ft | 317 kts | 285° |
| 2026-05-06 21:11 | 48.01933 | 34.07912 | 20349 ft | 318 kts | 285° |
| 2026-05-06 21:11 | 48.03270 | 34.00113 | 20322 ft | 319 kts | 285° |
| 2026-05-06 21:11 | 48.10910 | 33.55029 | 20053 ft | 321 kts | 285° |
| 2026-05-06 21:11 | 48.14276 | 33.35125 | 20100 ft | 317 kts | 286° |
| 2026-05-06 21:12 | 48.14817 | 33.31974 | 20227 ft | 314 kts | 285° |
| 2026-05-06 21:12 | 48.15352 | 33.28814 | 20335 ft | 313 kts | 285° |
| 2026-05-06 21:12 | 48.15888 | 33.25620 | 20347 ft | 315 kts | 285° |
| 2026-05-06 21:12 | 48.16426 | 33.22415 | 20339 ft | 317 kts | 285° |
| 2026-05-06 21:13 | 48.16970 | 33.19178 | 20351 ft | 318 kts | 285° |
| 2026-05-06 21:13 | 48.17515 | 33.15948 | 20342 ft | 320 kts | 285° |
| 2026-05-06 21:13 | 48.18059 | 33.12731 | 20338 ft | 321 kts | 285° |
| 2026-05-06 21:13 | 48.18611 | 33.09474 | 20352 ft | 321 kts | 285° |
| 2026-05-06 21:14 | 48.19161 | 33.06242 | 20363 ft | 321 kts | 285° |
| 2026-05-06 21:14 | 48.19721 | 33.02972 | 20378 ft | 321 kts | 285° |
| 2026-05-06 21:14 | 48.20284 | 32.99718 | 20386 ft | 322 kts | 285° |
| 2026-05-06 21:14 | 48.20845 | 32.96488 | 20399 ft | 322 kts | 285° |
| 2026-05-06 21:15 | 48.21409 | 32.93257 | 20409 ft | 322 kts | 285° |
| 2026-05-06 21:15 | 48.21979 | 32.90011 | 20428 ft | 322 kts | 285° |
| 2026-05-06 21:15 | 48.22554 | 32.86747 | 20430 ft | 322 kts | 285° |
| 2026-05-06 21:15 | 48.23128 | 32.83495 | 20438 ft | 322 kts | 285° |
| 2026-05-06 21:16 | 48.23696 | 32.80269 | 20425 ft | 323 kts | 285° |
| 2026-05-06 21:16 | 48.24269 | 32.77005 | 20440 ft | 323 kts | 285° |
| 2026-05-06 21:16 | 48.24841 | 32.73735 | 20423 ft | 324 kts | 285° |
| 2026-05-06 21:16 | 48.25416 | 32.70445 | 20441 ft | 323 kts | 285° |
| 2026-05-06 21:17 | 48.25988 | 32.67175 | 20424 ft | 324 kts | 285° |
| 2026-05-06 21:17 | 48.26558 | 32.63918 | 20441 ft | 323 kts | 285° |
| 2026-05-06 21:17 | 48.27134 | 32.60629 | 20428 ft | 324 kts | 285° |
| 2026-05-06 21:17 | 48.27704 | 32.57370 | 20436 ft | 324 kts | 285° |
| 2026-05-06 21:18 | 48.28273 | 32.54117 | 20425 ft | 324 kts | 285° |
| 2026-05-06 21:18 | 48.28845 | 32.50838 | 20437 ft | 324 kts | 285° |
| 2026-05-06 21:18 | 48.29415 | 32.47579 | 20428 ft | 324 kts | 286° |
| 2026-05-06 21:18 | 48.29995 | 32.44256 | 20432 ft | 324 kts | 286° |
| 2026-05-06 21:19 | 48.30564 | 32.40999 | 20430 ft | 324 kts | 286° |
| 2026-05-06 21:19 | 48.31134 | 32.37732 | 20430 ft | 324 kts | 286° |
| 2026-05-06 21:19 | 48.31706 | 32.34452 | 20433 ft | 324 kts | 285° |
| 2026-05-06 21:19 | 48.32278 | 32.31161 | 20370 ft | 326 kts | 285° |
| 2026-05-06 21:20 | 48.32851 | 32.27858 | 20462 ft | 323 kts | 285° |
| 2026-05-06 21:20 | 48.33416 | 32.24604 | 20432 ft | 324 kts | 285° |
| 2026-05-06 21:20 | 48.33986 | 32.21331 | 20387 ft | 325 kts | 285° |
| 2026-05-06 21:20 | 48.34557 | 32.18050 | 20477 ft | 322 kts | 285° |
| 2026-05-06 21:21 | 48.35131 | 32.14751 | 20417 ft | 325 kts | 285° |
| 2026-05-06 21:21 | 48.35705 | 32.11452 | 20403 ft | 325 kts | 285° |
| 2026-05-06 21:21 | 48.36269 | 32.08199 | 20483 ft | 322 kts | 285° |
| 2026-05-06 21:21 | 48.36846 | 32.04872 | 20404 ft | 325 kts | 285° |
| 2026-05-06 21:22 | 48.37413 | 32.01599 | 20420 ft | 324 kts | 285° |
| 2026-05-06 21:22 | 48.37982 | 31.98316 | 20479 ft | 323 kts | 285° |
| 2026-05-06 21:22 | 48.38552 | 31.95029 | 20392 ft | 326 kts | 285° |
| 2026-05-06 21:22 | 48.39117 | 31.91764 | 20434 ft | 324 kts | 285° |
| 2026-05-06 21:23 | 48.39685 | 31.88482 | 20468 ft | 323 kts | 285° |
| 2026-05-06 21:23 | 48.40254 | 31.85202 | 20382 ft | 326 kts | 285° |
| 2026-05-06 21:23 | 48.40825 | 31.81903 | 20450 ft | 323 kts | 285° |
| 2026-05-06 21:23 | 48.41396 | 31.78609 | 20449 ft | 324 kts | 285° |
| 2026-05-06 21:24 | 48.41965 | 31.75322 | 20380 ft | 326 kts | 285° |
| 2026-05-06 21:24 | 48.42533 | 31.72037 | 20464 ft | 323 kts | 285° |
| 2026-05-06 21:24 | 48.43101 | 31.68748 | 20433 ft | 324 kts | 285° |
| 2026-05-06 21:24 | 48.43673 | 31.65442 | 20390 ft | 325 kts | 285° |
| 2026-05-06 21:25 | 48.44237 | 31.62183 | 20475 ft | 323 kts | 285° |
| 2026-05-06 21:25 | 48.44802 | 31.58919 | 20418 ft | 325 kts | 285° |
| 2026-05-06 21:25 | 48.45377 | 31.55590 | 20395 ft | 325 kts | 285° |
| 2026-05-06 21:25 | 48.45943 | 31.52302 | 20434 ft | 323 kts | 285° |
| 2026-05-06 21:26 | 48.46509 | 31.49019 | 20374 ft | 325 kts | 285° |
| 2026-05-06 21:26 | 48.47082 | 31.45687 | 20397 ft | 324 kts | 285° |
| 2026-05-06 21:26 | 48.47644 | 31.42425 | 20447 ft | 322 kts | 285° |
| 2026-05-06 21:26 | 48.48209 | 31.39147 | 20361 ft | 325 kts | 285° |
| 2026-05-06 21:27 | 48.48778 | 31.35839 | 20412 ft | 323 kts | 285° |
| 2026-05-06 21:27 | 48.49337 | 31.32586 | 20403 ft | 324 kts | 285° |
| 2026-05-06 21:27 | 48.49906 | 31.29265 | 20343 ft | 325 kts | 285° |
| 2026-05-06 21:27 | 48.50452 | 31.26020 | 20435 ft | 322 kts | 284° |
| 2026-05-06 21:28 | 48.50978 | 31.22701 | 20400 ft | 323 kts | 284° |
| 2026-05-06 21:28 | 48.51511 | 31.19382 | 20355 ft | 324 kts | 284° |
| 2026-05-06 21:28 | 48.52035 | 31.16104 | 20441 ft | 321 kts | 284° |
| 2026-05-06 21:28 | 48.52552 | 31.12819 | 20390 ft | 323 kts | 284° |
| 2026-05-06 21:29 | 48.53068 | 31.09476 | 20374 ft | 323 kts | 284° |
| 2026-05-06 21:29 | 48.53565 | 31.06209 | 20451 ft | 320 kts | 284° |
| 2026-05-06 21:29 | 48.54063 | 31.02907 | 20375 ft | 322 kts | 284° |
| 2026-05-06 21:29 | 48.54551 | 30.99650 | 20392 ft | 320 kts | 284° |
| 2026-05-06 21:30 | 48.55044 | 30.96370 | 20450 ft | 317 kts | 284° |
| 2026-05-06 21:30 | 48.55537 | 30.93095 | 20363 ft | 319 kts | 284° |
| 2026-05-06 21:30 | 48.56027 | 30.89847 | 20409 ft | 316 kts | 284° |
| 2026-05-06 21:30 | 48.56515 | 30.86621 | 20435 ft | 315 kts | 284° |
| 2026-05-06 21:31 | 48.57003 | 30.83394 | 20353 ft | 318 kts | 284° |
| 2026-05-06 21:31 | 48.57288 | 30.81504 | 20370 ft | 316 kts | 284° |
| 2026-05-06 21:31 | 48.57771 | 30.78291 | 20426 ft | 314 kts | 284° |
| 2026-05-06 21:31 | 48.58258 | 30.75046 | 20410 ft | 314 kts | 284° |
| 2026-05-06 21:32 | 48.58740 | 30.71833 | 20406 ft | 314 kts | 284° |
| 2026-05-06 21:32 | 48.59699 | 30.65426 | 20410 ft | 313 kts | 284° |
| 2026-05-06 21:32 | 48.60182 | 30.62201 | 20394 ft | 314 kts | 284° |
| 2026-05-06 21:33 | 48.60661 | 30.58995 | 20409 ft | 313 kts | 284° |
| 2026-05-06 21:33 | 48.61145 | 30.55758 | 20399 ft | 313 kts | 284° |
| 2026-05-06 21:33 | 48.61622 | 30.52566 | 20411 ft | 313 kts | 284° |
| 2026-05-06 21:33 | 48.62122 | 30.49333 | 20412 ft | 313 kts | 286° |
| 2026-05-06 21:34 | 48.62724 | 30.46217 | 20432 ft | 311 kts | 290° |
| 2026-05-06 21:34 | 48.63388 | 30.43092 | 20359 ft | 314 kts | 289° |
| 2026-05-06 21:34 | 48.64056 | 30.39895 | 20121 ft | 321 kts | 289° |
| 2026-05-06 21:34 | 48.64747 | 30.36624 | 19705 ft | 332 kts | 290° |
| 2026-05-06 21:35 | 48.65484 | 30.33245 | 19276 ft | 340 kts | 289° |
| 2026-05-06 21:35 | 48.66221 | 30.29839 | 18755 ft | 348 kts | 289° |
| 2026-05-06 21:35 | 48.66980 | 30.26327 | 18235 ft | 353 kts | 289° |
| 2026-05-06 21:35 | 48.67745 | 30.22814 | 17733 ft | 356 kts | 289° |
| 2026-05-06 21:36 | 48.68528 | 30.19232 | 17235 ft | 358 kts | 289° |
| 2026-05-06 21:36 | 48.69305 | 30.15684 | 16754 ft | 358 kts | 289° |
| 2026-05-06 21:36 | 48.70096 | 30.12074 | 16276 ft | 358 kts | 289° |
| 2026-05-06 21:36 | 48.70875 | 30.08519 | 15813 ft | 358 kts | 289° |
| 2026-05-06 21:37 | 48.71648 | 30.04971 | 15357 ft | 357 kts | 289° |
| 2026-05-06 21:37 | 48.72426 | 30.01396 | 14905 ft | 356 kts | 289° |
| 2026-05-06 21:37 | 48.73201 | 29.97837 | 14460 ft | 356 kts | 289° |
| 2026-05-06 21:37 | 48.73978 | 29.94270 | 14021 ft | 355 kts | 289° |
| 2026-05-06 21:38 | 48.74744 | 29.90748 | 13594 ft | 354 kts | 289° |
| 2026-05-06 21:38 | 48.75510 | 29.87229 | 13173 ft | 354 kts | 290° |
| 2026-05-06 21:38 | 48.76278 | 29.83697 | 12757 ft | 353 kts | 290° |
| 2026-05-06 21:38 | 48.77041 | 29.80189 | 12350 ft | 352 kts | 290° |
| 2026-05-06 21:39 | 48.77813 | 29.76639 | 11944 ft | 352 kts | 290° |
| 2026-05-06 21:39 | 48.78578 | 29.73114 | 11546 ft | 351 kts | 290° |
| 2026-05-06 21:39 | 48.79331 | 29.69641 | 11160 ft | 349 kts | 290° |
| 2026-05-06 21:39 | 48.80090 | 29.66137 | 10775 ft | 348 kts | 290° |
| 2026-05-06 21:40 | 48.80847 | 29.62636 | 10394 ft | 346 kts | 290° |
| 2026-05-06 21:40 | 48.81589 | 29.59205 | 10024 ft | 344 kts | 290° |
| 2026-05-06 21:40 | 48.82332 | 29.55774 | 9656 ft | 342 kts | 290° |
| 2026-05-06 21:40 | 48.83071 | 29.52371 | 9295 ft | 339 kts | 290° |
| 2026-05-06 21:41 | 48.83812 | 29.48969 | 8936 ft | 337 kts | 290° |
| 2026-05-06 21:41 | 48.84530 | 29.45667 | 9112 ft | 320 kts | 290° |
| 2026-05-06 21:41 | 48.85222 | 29.42474 | 9162 ft | 313 kts | 290° |
| 2026-05-06 21:41 | 48.85893 | 29.39365 | 9125 ft | 311 kts | 290° |
| 2026-05-06 21:42 | 48.86576 | 29.36205 | 8725 ft | 316 kts | 290° |
| 2026-05-06 21:42 | 48.87276 | 29.32987 | 8147 ft | 327 kts | 289° |
| 2026-05-06 21:42 | 48.88002 | 29.29669 | 7510 ft | 335 kts | 289° |
| 2026-05-06 21:42 | 48.88747 | 29.26308 | 6877 ft | 339 kts | 289° |
| 2026-05-06 21:43 | 48.89510 | 29.22920 | 6250 ft | 340 kts | 289° |
| 2026-05-06 21:43 | 48.90277 | 29.19548 | 6048 ft | 328 kts | 289° |
| 2026-05-06 21:43 | 48.91010 | 29.16346 | 5999 ft | 318 kts | 289° |
| 2026-05-06 21:43 | 48.91729 | 29.13202 | 5957 ft | 310 kts | 289° |
| 2026-05-06 21:44 | 48.92434 | 29.10109 | 6032 ft | 302 kts | 289° |
| 2026-05-06 21:44 | 48.93114 | 29.07135 | 5988 ft | 300 kts | 289° |
| 2026-05-06 21:44 | 48.93799 | 29.04130 | 6022 ft | 296 kts | 289° |
| 2026-05-06 21:44 | 48.94425 | 29.01136 | 5972 ft | 296 kts | 288° |
| 2026-05-06 21:45 | 48.95041 | 28.98206 | 6026 ft | 292 kts | 288° |
| 2026-05-06 21:45 | 48.95652 | 28.95289 | 5981 ft | 282 kts | 288° |
| 2026-05-06 21:45 | 48.96285 | 28.92472 | 5902 ft | 281 kts | 293° |
| 2026-05-06 21:45 | 48.97356 | 28.90065 | 5867 ft | 268 kts | 314° |
| 2026-05-06 21:46 | 48.98830 | 28.88403 | 5284 ft | 270 kts | 330° |
| 2026-05-06 21:46 | 49.00573 | 28.87188 | 4506 ft | 277 kts | 336° |
| 2026-05-06 21:46 | 49.02354 | 28.86221 | 4091 ft | 269 kts | 339° |
| 2026-05-06 21:46 | 49.04077 | 28.85441 | 4136 ft | 248 kts | 344° |
| 2026-05-06 21:47 | 49.05710 | 28.84891 | 4035 ft | 232 kts | 345° |
| 2026-05-06 21:47 | 49.07230 | 28.84370 | 3692 ft | 220 kts | 344° |
| 2026-05-06 21:47 | 49.08609 | 28.83529 | 3398 ft | 205 kts | 326° |
| 2026-05-06 21:47 | 49.08865 | 28.83267 | 3310 ft | 203 kts | 321° |
| 2026-05-06 21:48 | 49.09447 | 28.82503 | 3008 ft | 204 kts | 312° |
| 2026-05-06 21:48 | 49.10414 | 28.80932 | 2428 ft | 199 kts | 309° |
| 2026-05-06 21:48 | 49.11310 | 28.79474 | 2141 ft | 182 kts | 311° |
| 2026-05-06 21:48 | 49.12190 | 28.78038 | 2139 ft | 185 kts | 311° |
| 2026-05-06 21:49 | 49.13036 | 28.76881 | 2680 ft | 148 kts | 316° |
| 2026-05-06 21:49 | 49.13803 | 28.75890 | 2740 ft | 144 kts | 316° |
| 2026-05-06 21:49 | 49.14537 | 28.74912 | 2877 ft | 134 kts | 315° |
| 2026-05-06 21:49 | 49.15223 | 28.73958 | 3006 ft | 129 kts | 313° |
| 2026-05-06 21:50 | 49.15883 | 28.73024 | 3083 ft | 130 kts | 319° |
| 2026-05-06 21:50 | 49.16577 | 28.72080 | 3056 ft | 138 kts | 314° |
| 2026-05-06 21:50 | 49.17320 | 28.71020 | 3030 ft | 152 kts | 313° |
| 2026-05-06 21:50 | 49.18066 | 28.69895 | 3034 ft | 147 kts | 313° |
| 2026-05-06 21:51 | 49.18771 | 28.68866 | 2682 ft | 134 kts | 313° |
| 2026-05-06 21:51 | 49.19455 | 28.67967 | 2063 ft | 134 kts | 320° |
| 2026-05-06 21:51 | 49.20118 | 28.67084 | 1681 ft | 124 kts | 314° |
| 2026-05-06 21:51 | 49.20780 | 28.66128 | 1589 ft | 136 kts | 315° |
| 2026-05-06 21:52 | 49.21504 | 28.65149 | 1602 ft | 140 kts | 316° |
| 2026-05-06 21:52 | 49.22234 | 28.64133 | 1397 ft | 142 kts | 315° |
| 2026-05-06 21:52 | 49.22967 | 28.63142 | 1169 ft | 138 kts | 314° |
| 2026-05-06 21:52 | 49.23667 | 28.62177 | 1006 ft | 129 kts | 315° |
| 2026-05-06 21:53 | 49.24228 | 28.61387 | 983 ft | 86 kts | 322° |
| 2026-05-06 21:53 | 49.24587 | 28.60923 | 983 ft | 52 kts | 320° |
| 2026-05-06 21:53 | 49.24778 | 28.60660 | 983 ft | 14 kts | 296° |
| 2026-05-06 21:53 | 49.24781 | 28.60647 | 983 ft | 0 kts | 279° |
| 2026-05-06 21:54 | 49.24754 | 28.60590 | 983 ft | 4 kts | 228° |
| 2026-05-06 21:54 | 49.24714 | 28.60523 | 983 ft | 11 kts | 231° |
| 2026-05-06 21:54 | 49.24686 | 28.60473 | 983 ft | 4 kts | 225° |
| 2026-05-06 21:54 | 49.24589 | 28.60532 | 983 ft | 17 kts | 139° |
| 2026-05-06 21:55 | 49.24527 | 28.60616 | 983 ft | 6 kts | 136° |
| 2026-05-06 21:55 | 49.24515 | 28.60634 | 983 ft | 1 kts | 136° |
| 2026-05-06 21:55 | 49.24408 | 28.60782 | 983 ft | 35 kts | 139° |
| 2026-05-06 21:55 | 49.24260 | 28.60982 | 983 ft | 20 kts | 140° |
| 2026-05-06 21:56 | 49.24176 | 28.61097 | 983 ft | 19 kts | 139° |
| 2026-05-06 21:56 | 49.24048 | 28.61272 | 983 ft | 36 kts | 139° |
| 2026-05-06 21:56 | 49.23900 | 28.61475 | 983 ft | 21 kts | 139° |
| 2026-05-06 21:56 | 49.23821 | 28.61581 | 983 ft | 10 kts | 139° |
| 2026-05-06 21:57 | 49.23716 | 28.61723 | 983 ft | 20 kts | 139° |
| 2026-05-06 21:57 | 49.23625 | 28.61784 | 983 ft | 8 kts | 193° |
| 2026-05-06 21:57 | 49.23599 | 28.61799 | 983 ft | 0 kts | 132° |
| 2026-05-06 21:58 | 49.23584 | 28.61825 | 983 ft | 13 kts | 133° |
| 2026-05-06 21:58 | 49.23548 | 28.61798 | 983 ft | 17 kts | 297° |
| 2026-05-06 21:59 | 49.23615 | 28.61760 | 983 ft | 6 kts | 41° |
| 2026-05-06 21:59 | 49.23696 | 28.61752 | 983 ft | 11 kts | 317° |
| 2026-05-06 21:59 | 49.23817 | 28.61579 | 983 ft | 17 kts | 314° |
| 2026-05-06 21:59 | 49.23884 | 28.61495 | 983 ft | 8 kts | 318° |
| 2026-05-06 22:00 | 49.23906 | 28.61465 | 983 ft | 0 kts | 318° |
| 2026-05-06 22:00 | 49.23968 | 28.61380 | 983 ft | 25 kts | 321° |
| 2026-05-06 22:00 | 49.24069 | 28.61241 | 983 ft | 14 kts | 319° |
| 2026-05-06 22:00 | 49.24183 | 28.61087 | 983 ft | 31 kts | 318° |
| 2026-05-06 22:01 | 49.24346 | 28.60869 | 983 ft | 16 kts | 313° |
| 2026-05-06 22:01 | 49.24332 | 28.60778 | 983 ft | 4 kts | 228° |
| 2026-05-06 22:01 | 49.24327 | 28.60722 | 983 ft | 3 kts | 329° |
| 2026-05-06 22:01 | 49.24345 | 28.60704 | 983 ft | 7 kts | 288° |
| 2026-05-06 22:02 | 49.24342 | 28.60692 | 983 ft | 1 kts | 221° |
| 2026-05-06 22:02 | 49.24333 | 28.60681 | 983 ft | 0 kts | 220° |
| 2026-05-06 22:02 | 49.24350 | 28.60702 | 983 ft | 0 kts | 220° |
| 2026-05-06 22:03 | 49.24342 | 28.60693 | 983 ft | 0 kts | 206° |
| 2026-05-06 22:03 | 49.24335 | 28.60685 | 983 ft | 1 kts | 225° |
| 2026-05-06 22:03 | 49.24333 | 28.60682 | 983 ft | 0 kts | 232° |